Trinity, Alabama
Current Conditions -  °F | °C
As of 6:53 AM on Friday 19 Dec 2014 (Local Time) from KDCU Reporting Station
Overcast Overcast  
Wind Chill: 37°   Ceiling: 3800
Heat Index: 37°   Visibility: 7mi
Dew Point: 33°   Wind: 3mph
Humidity: 86%   Direction: 30°NNE
Pressure: 30.23"   Gusts: NA
Location:  34.61°N, 87.09°W
Report Text: KDCU 191253Z AUTO 03003KT 7SM OVC038 03/01 A3023 RMK AO2 SLP239 T00280006 $
Loading
Personal Weather Stations






























Interactive Weather Map New forecast layout! Learn more

10-Day Weather Forecast

Advertisements
Track Severe Weather on mobile